sensor_id;sensor_type;location;lat;lon;timestamp;P1;durP1;ratioP1;P2;durP2;ratioP2
50880;SDS011;36858;47.832;-3.800;2023-01-15T00:01:54;3.90;;;0.90;;
50880;SDS011;36858;47.832;-3.800;2023-01-15T00:04:21;3.10;;;0.90;;
50880;SDS011;36858;47.832;-3.800;2023-01-15T00:06:48;3.37;;;0.80;;
50880;SDS011;36858;47.832;-3.800;2023-01-15T00:09:15;5.60;;;1.40;;
50880;SDS011;36858;47.832;-3.800;2023-01-15T00:11:43;2.30;;;0.87;;
50880;SDS011;36858;47.832;-3.800;2023-01-15T00:14:11;4.10;;;0.80;;
50880;SDS011;36858;47.832;-3.800;2023-01-15T00:16:38;3.73;;;1.50;;
50880;SDS011;36858;47.832;-3.800;2023-01-15T00:19:06;1.27;;;0.50;;
50880;SDS011;36858;47.832;-3.800;2023-01-15T00:21:36;7.77;;;1.30;;
50880;SDS011;36858;47.832;-3.800;2023-01-15T00:24:03;3.43;;;1.10;;
50880;SDS011;36858;47.832;-3.800;2023-01-15T00:26:49;5.73;;;0.97;;
50880;SDS011;36858;47.832;-3.800;2023-01-15T00:29:39;7.57;;;1.40;;
50880;SDS011;36858;47.832;-3.800;2023-01-15T00:32:06;4.57;;;1.30;;
50880;SDS011;36858;47.832;-3.800;2023-01-15T00:34:34;3.00;;;1.03;;
50880;SDS011;36858;47.832;-3.800;2023-01-15T00:37:01;8.03;;;1.47;;
50880;SDS011;36858;47.832;-3.800;2023-01-15T00:39:28;4.53;;;1.13;;
50880;SDS011;36858;47.832;-3.800;2023-01-15T00:41:55;2.30;;;0.90;;
50880;SDS011;36858;47.832;-3.800;2023-01-15T00:44:22;5.93;;;0.90;;
50880;SDS011;36858;47.832;-3.800;2023-01-15T00:46:49;4.20;;;1.37;;
50880;SDS011;36858;47.832;-3.800;2023-01-15T00:49:16;1.90;;;0.83;;
50880;SDS011;36858;47.832;-3.800;2023-01-15T00:51:43;2.23;;;1.13;;
50880;SDS011;36858;47.832;-3.800;2023-01-15T00:54:10;2.63;;;0.90;;
50880;SDS011;36858;47.832;-3.800;2023-01-15T00:56:37;3.70;;;1.00;;
50880;SDS011;36858;47.832;-3.800;2023-01-15T00:59:04;4.17;;;1.10;;
50880;SDS011;36858;47.832;-3.800;2023-01-15T01:01:32;4.33;;;0.90;;
50880;SDS011;36858;47.832;-3.800;2023-01-15T01:03:59;6.10;;;1.13;;
50880;SDS011;36858;47.832;-3.800;2023-01-15T01:06:27;6.23;;;1.20;;
50880;SDS011;36858;47.832;-3.800;2023-01-15T01:08:54;9.53;;;1.53;;
50880;SDS011;36858;47.832;-3.800;2023-01-15T01:11:22;5.63;;;1.30;;
50880;SDS011;36858;47.832;-3.800;2023-01-15T01:13:55;4.13;;;1.30;;
50880;SDS011;36858;47.832;-3.800;2023-01-15T01:16:31;4.87;;;1.40;;
50880;SDS011;36858;47.832;-3.800;2023-01-15T01:19:02;6.80;;;1.50;;
50880;SDS011;36858;47.832;-3.800;2023-01-15T01:21:35;7.47;;;1.43;;
50880;SDS011;36858;47.832;-3.800;2023-01-15T01:24:04;5.43;;;1.67;;
50880;SDS011;36858;47.832;-3.800;2023-01-15T01:26:32;7.07;;;1.47;;
50880;SDS011;36858;47.832;-3.800;2023-01-15T01:28:59;7.33;;;1.93;;
50880;SDS011;36858;47.832;-3.800;2023-01-15T01:31:26;5.73;;;1.30;;
50880;SDS011;36858;47.832;-3.800;2023-01-15T01:33:54;7.53;;;1.70;;
50880;SDS011;36858;47.832;-3.800;2023-01-15T01:36:29;4.60;;;1.03;;
50880;SDS011;36858;47.832;-3.800;2023-01-15T01:38:58;5.70;;;1.40;;
50880;SDS011;36858;47.832;-3.800;2023-01-15T01:41:25;4.63;;;1.40;;
50880;SDS011;36858;47.832;-3.800;2023-01-15T01:44:00;10.70;;;1.87;;
50880;SDS011;36858;47.832;-3.800;2023-01-15T01:46:30;6.70;;;1.90;;
50880;SDS011;36858;47.832;-3.800;2023-01-15T01:49:03;8.87;;;1.80;;
50880;SDS011;36858;47.832;-3.800;2023-01-15T01:51:35;6.33;;;1.93;;
50880;SDS011;36858;47.832;-3.800;2023-01-15T01:54:05;6.53;;;1.30;;
50880;SDS011;36858;47.832;-3.800;2023-01-15T01:56:33;7.90;;;1.80;;
50880;SDS011;36858;47.832;-3.800;2023-01-15T01:59:01;5.83;;;1.30;;
50880;SDS011;36858;47.832;-3.800;2023-01-15T02:01:29;6.13;;;1.90;;
50880;SDS011;36858;47.832;-3.800;2023-01-15T02:03:56;3.80;;;1.10;;
50880;SDS011;36858;47.832;-3.800;2023-01-15T02:06:23;8.57;;;1.80;;
50880;SDS011;36858;47.832;-3.800;2023-01-15T02:08:51;2.73;;;0.97;;
50880;SDS011;36858;47.832;-3.800;2023-01-15T02:11:19;6.83;;;1.87;;
50880;SDS011;36858;47.832;-3.800;2023-01-15T02:16:43;5.63;;;1.20;;
50880;SDS011;36858;47.832;-3.800;2023-01-15T02:19:24;4.40;;;1.30;;
50880;SDS011;36858;47.832;-3.800;2023-01-15T02:27:24;5.73;;;1.10;;
50880;SDS011;36858;47.832;-3.800;2023-01-15T02:35:17;7.63;;;1.60;;
50880;SDS011;36858;47.832;-3.800;2023-01-15T02:37:49;7.63;;;1.37;;
50880;SDS011;36858;47.832;-3.800;2023-01-15T02:40:18;8.47;;;1.60;;
50880;SDS011;36858;47.832;-3.800;2023-01-15T02:42:47;5.47;;;1.27;;
50880;SDS011;36858;47.832;-3.800;2023-01-15T02:45:16;10.27;;;2.00;;
50880;SDS011;36858;47.832;-3.800;2023-01-15T02:47:49;8.23;;;1.63;;
50880;SDS011;36858;47.832;-3.800;2023-01-15T02:50:18;6.80;;;1.60;;
50880;SDS011;36858;47.832;-3.800;2023-01-15T02:52:48;11.33;;;2.03;;
50880;SDS011;36858;47.832;-3.800;2023-01-15T02:55:20;4.93;;;1.10;;
50880;SDS011;36858;47.832;-3.800;2023-01-15T02:57:50;6.20;;;1.43;;
50880;SDS011;36858;47.832;-3.800;2023-01-15T03:00:20;9.10;;;1.63;;
50880;SDS011;36858;47.832;-3.800;2023-01-15T03:02:53;8.13;;;2.00;;
50880;SDS011;36858;47.832;-3.800;2023-01-15T03:05:29;6.90;;;1.90;;
50880;SDS011;36858;47.832;-3.800;2023-01-15T03:08:11;7.53;;;1.70;;
50880;SDS011;36858;47.832;-3.800;2023-01-15T03:10:41;5.80;;;1.73;;
50880;SDS011;36858;47.832;-3.800;2023-01-15T03:16:02;7.90;;;1.30;;
50880;SDS011;36858;47.832;-3.800;2023-01-15T03:21:54;11.70;;;2.50;;
50880;SDS011;36858;47.832;-3.800;2023-01-15T03:24:34;6.23;;;2.00;;
50880;SDS011;36858;47.832;-3.800;2023-01-15T03:27:06;7.63;;;1.40;;
50880;SDS011;36858;47.832;-3.800;2023-01-15T03:29:35;5.53;;;1.43;;
50880;SDS011;36858;47.832;-3.800;2023-01-15T03:32:04;8.10;;;1.47;;
50880;SDS011;36858;47.832;-3.800;2023-01-15T03:34:41;4.07;;;1.80;;
50880;SDS011;36858;47.832;-3.800;2023-01-15T03:37:10;4.93;;;1.07;;
50880;SDS011;36858;47.832;-3.800;2023-01-15T03:39:38;2.43;;;0.80;;
50880;SDS011;36858;47.832;-3.800;2023-01-15T03:52:28;5.40;;;1.93;;
50880;SDS011;36858;47.832;-3.800;2023-01-15T03:55:18;2.50;;;1.20;;
50880;SDS011;36858;47.832;-3.800;2023-01-15T04:00:41;4.23;;;1.10;;
50880;SDS011;36858;47.832;-3.800;2023-01-15T04:03:10;5.67;;;1.33;;
50880;SDS011;36858;47.832;-3.800;2023-01-15T04:05:38;5.20;;;1.57;;
50880;SDS011;36858;47.832;-3.800;2023-01-15T04:08:05;3.63;;;0.93;;
50880;SDS011;36858;47.832;-3.800;2023-01-15T04:10:33;8.20;;;1.20;;
50880;SDS011;36858;47.832;-3.800;2023-01-15T04:13:00;5.80;;;1.97;;
50880;SDS011;36858;47.832;-3.800;2023-01-15T04:15:27;7.67;;;2.13;;
50880;SDS011;36858;47.832;-3.800;2023-01-15T04:17:54;2.97;;;1.17;;
50880;SDS011;36858;47.832;-3.800;2023-01-15T04:20:21;4.87;;;1.77;;
50880;SDS011;36858;47.832;-3.800;2023-01-15T04:22:48;7.93;;;1.80;;
50880;SDS011;36858;47.832;-3.800;2023-01-15T04:25:15;10.50;;;1.57;;
50880;SDS011;36858;47.832;-3.800;2023-01-15T04:27:42;9.37;;;1.70;;
50880;SDS011;36858;47.832;-3.800;2023-01-15T04:30:09;9.70;;;2.47;;
50880;SDS011;36858;47.832;-3.800;2023-01-15T04:32:37;13.33;;;2.60;;
50880;SDS011;36858;47.832;-3.800;2023-01-15T04:35:04;10.27;;;2.43;;
50880;SDS011;36858;47.832;-3.800;2023-01-15T04:37:31;7.77;;;1.87;;
50880;SDS011;36858;47.832;-3.800;2023-01-15T04:39:58;10.27;;;2.87;;
50880;SDS011;36858;47.832;-3.800;2023-01-15T04:42:25;8.23;;;1.70;;
50880;SDS011;36858;47.832;-3.800;2023-01-15T04:45:10;9.10;;;1.80;;
50880;SDS011;36858;47.832;-3.800;2023-01-15T04:47:37;6.37;;;2.10;;
50880;SDS011;36858;47.832;-3.800;2023-01-15T04:50:04;9.70;;;2.00;;
50880;SDS011;36858;47.832;-3.800;2023-01-15T04:52:31;10.87;;;1.90;;
50880;SDS011;36858;47.832;-3.800;2023-01-15T04:54:58;7.50;;;2.07;;
50880;SDS011;36858;47.832;-3.800;2023-01-15T04:57:25;8.60;;;1.70;;
50880;SDS011;36858;47.832;-3.800;2023-01-15T04:59:52;8.60;;;1.93;;
50880;SDS011;36858;47.832;-3.800;2023-01-15T05:02:19;4.23;;;1.30;;
50880;SDS011;36858;47.832;-3.800;2023-01-15T05:04:46;7.77;;;2.37;;
50880;SDS011;36858;47.832;-3.800;2023-01-15T05:07:13;7.90;;;1.57;;
50880;SDS011;36858;47.832;-3.800;2023-01-15T05:09:40;7.97;;;2.17;;
50880;SDS011;36858;47.832;-3.800;2023-01-15T05:12:07;7.67;;;1.73;;
50880;SDS011;36858;47.832;-3.800;2023-01-15T05:14:34;8.17;;;1.77;;
50880;SDS011;36858;47.832;-3.800;2023-01-15T05:17:01;9.30;;;2.03;;
50880;SDS011;36858;47.832;-3.800;2023-01-15T05:19:28;5.33;;;1.57;;
50880;SDS011;36858;47.832;-3.800;2023-01-15T05:21:55;8.07;;;1.87;;
50880;SDS011;36858;47.832;-3.800;2023-01-15T05:24:22;7.63;;;1.67;;
50880;SDS011;36858;47.832;-3.800;2023-01-15T05:26:49;11.77;;;2.33;;
50880;SDS011;36858;47.832;-3.800;2023-01-15T05:29:16;10.93;;;1.73;;
50880;SDS011;36858;47.832;-3.800;2023-01-15T05:31:43;8.50;;;1.50;;
50880;SDS011;36858;47.832;-3.800;2023-01-15T05:34:10;6.63;;;1.70;;
50880;SDS011;36858;47.832;-3.800;2023-01-15T05:36:38;10.57;;;1.80;;
50880;SDS011;36858;47.832;-3.800;2023-01-15T05:39:05;11.07;;;2.03;;
50880;SDS011;36858;47.832;-3.800;2023-01-15T05:41:33;9.30;;;2.37;;
50880;SDS011;36858;47.832;-3.800;2023-01-15T05:44:19;9.17;;;2.23;;
50880;SDS011;36858;47.832;-3.800;2023-01-15T05:46:47;9.30;;;2.13;;
50880;SDS011;36858;47.832;-3.800;2023-01-15T05:49:17;12.77;;;2.00;;
50880;SDS011;36858;47.832;-3.800;2023-01-15T05:51:45;6.40;;;2.20;;
50880;SDS011;36858;47.832;-3.800;2023-01-15T05:54:13;12.60;;;2.20;;
50880;SDS011;36858;47.832;-3.800;2023-01-15T05:56:42;8.97;;;1.83;;
50880;SDS011;36858;47.832;-3.800;2023-01-15T05:59:13;7.50;;;2.37;;
50880;SDS011;36858;47.832;-3.800;2023-01-15T06:01:41;7.67;;;1.50;;
50880;SDS011;36858;47.832;-3.800;2023-01-15T06:04:08;5.80;;;1.77;;
50880;SDS011;36858;47.832;-3.800;2023-01-15T06:06:36;6.40;;;1.57;;
50880;SDS011;36858;47.832;-3.800;2023-01-15T06:09:03;8.70;;;1.73;;
50880;SDS011;36858;47.832;-3.800;2023-01-15T06:11:30;6.63;;;1.97;;
50880;SDS011;36858;47.832;-3.800;2023-01-15T06:13:57;8.70;;;1.80;;
50880;SDS011;36858;47.832;-3.800;2023-01-15T06:16:25;8.97;;;1.73;;
50880;SDS011;36858;47.832;-3.800;2023-01-15T06:18:52;5.60;;;1.50;;
50880;SDS011;36858;47.832;-3.800;2023-01-15T06:21:19;7.93;;;2.00;;
50880;SDS011;36858;47.832;-3.800;2023-01-15T06:23:46;4.00;;;1.17;;
50880;SDS011;36858;47.832;-3.800;2023-01-15T06:26:14;4.03;;;1.00;;
50880;SDS011;36858;47.832;-3.800;2023-01-15T06:28:44;10.10;;;1.13;;
50880;SDS011;36858;47.832;-3.800;2023-01-15T06:31:13;5.40;;;1.00;;
50880;SDS011;36858;47.832;-3.800;2023-01-15T06:33:41;2.67;;;1.00;;
50880;SDS011;36858;47.832;-3.800;2023-01-15T06:36:12;1.70;;;0.77;;
50880;SDS011;36858;47.832;-3.800;2023-01-15T06:38:40;2.33;;;0.70;;
50880;SDS011;36858;47.832;-3.800;2023-01-15T06:41:09;2.93;;;0.70;;
50880;SDS011;36858;47.832;-3.800;2023-01-15T06:44:06;9.93;;;1.20;;
50880;SDS011;36858;47.832;-3.800;2023-01-15T06:46:55;5.33;;;1.47;;
50880;SDS011;36858;47.832;-3.800;2023-01-15T06:49:41;9.50;;;1.43;;
50880;SDS011;36858;47.832;-3.800;2023-01-15T06:52:08;3.03;;;1.00;;
50880;SDS011;36858;47.832;-3.800;2023-01-15T06:54:35;3.77;;;0.90;;
50880;SDS011;36858;47.832;-3.800;2023-01-15T06:57:02;4.77;;;1.10;;
50880;SDS011;36858;47.832;-3.800;2023-01-15T06:59:29;5.00;;;1.00;;
50880;SDS011;36858;47.832;-3.800;2023-01-15T07:01:57;4.77;;;1.00;;
50880;SDS011;36858;47.832;-3.800;2023-01-15T07:04:24;2.13;;;0.90;;
50880;SDS011;36858;47.832;-3.800;2023-01-15T07:06:51;3.33;;;0.97;;
50880;SDS011;36858;47.832;-3.800;2023-01-15T07:09:18;6.23;;;0.83;;
50880;SDS011;36858;47.832;-3.800;2023-01-15T07:11:45;4.80;;;1.03;;
50880;SDS011;36858;47.832;-3.800;2023-01-15T07:14:16;3.27;;;0.73;;
50880;SDS011;36858;47.832;-3.800;2023-01-15T07:16:43;4.60;;;1.13;;
50880;SDS011;36858;47.832;-3.800;2023-01-15T07:19:10;9.10;;;2.47;;
50880;SDS011;36858;47.832;-3.800;2023-01-15T07:21:37;4.60;;;1.10;;
50880;SDS011;36858;47.832;-3.800;2023-01-15T07:24:04;11.63;;;1.30;;
50880;SDS011;36858;47.832;-3.800;2023-01-15T07:26:32;5.90;;;1.33;;
50880;SDS011;36858;47.832;-3.800;2023-01-15T07:28:59;6.00;;;1.70;;
50880;SDS011;36858;47.832;-3.800;2023-01-15T07:31:26;4.20;;;1.10;;
50880;SDS011;36858;47.832;-3.800;2023-01-15T07:33:54;6.30;;;1.57;;
50880;SDS011;36858;47.832;-3.800;2023-01-15T07:36:22;7.50;;;1.73;;
50880;SDS011;36858;47.832;-3.800;2023-01-15T07:38:49;5.77;;;1.63;;
50880;SDS011;36858;47.832;-3.800;2023-01-15T07:41:16;6.60;;;1.60;;
50880;SDS011;36858;47.832;-3.800;2023-01-15T07:44:02;7.83;;;1.90;;
50880;SDS011;36858;47.832;-3.800;2023-01-15T07:46:48;6.50;;;1.83;;
50880;SDS011;36858;47.832;-3.800;2023-01-15T07:49:33;5.30;;;1.50;;
50880;SDS011;36858;47.832;-3.800;2023-01-15T07:52:17;7.20;;;1.67;;
50880;SDS011;36858;47.832;-3.800;2023-01-15T07:54:45;10.57;;;2.47;;
50880;SDS011;36858;47.832;-3.800;2023-01-15T07:57:15;7.30;;;1.50;;
50880;SDS011;36858;47.832;-3.800;2023-01-15T07:59:44;9.70;;;2.13;;
50880;SDS011;36858;47.832;-3.800;2023-01-15T08:02:11;7.73;;;1.90;;
50880;SDS011;36858;47.832;-3.800;2023-01-15T08:04:38;11.07;;;1.50;;
50880;SDS011;36858;47.832;-3.800;2023-01-15T08:07:05;8.77;;;1.63;;
50880;SDS011;36858;47.832;-3.800;2023-01-15T08:09:33;6.23;;;1.60;;
50880;SDS011;36858;47.832;-3.800;2023-01-15T08:12:01;6.17;;;1.70;;
50880;SDS011;36858;47.832;-3.800;2023-01-15T08:14:47;5.17;;;1.33;;
50880;SDS011;36858;47.832;-3.800;2023-01-15T08:17:33;5.37;;;1.03;;
50880;SDS011;36858;47.832;-3.800;2023-01-15T08:20:04;4.83;;;1.63;;
50880;SDS011;36858;47.832;-3.800;2023-01-15T08:22:36;4.77;;;1.20;;
50880;SDS011;36858;47.832;-3.800;2023-01-15T08:25:04;5.93;;;1.17;;
50880;SDS011;36858;47.832;-3.800;2023-01-15T08:27:31;6.47;;;1.33;;
50880;SDS011;36858;47.832;-3.800;2023-01-15T08:29:58;4.67;;;1.10;;
50880;SDS011;36858;47.832;-3.800;2023-01-15T08:32:25;4.27;;;1.53;;
50880;SDS011;36858;47.832;-3.800;2023-01-15T08:34:52;4.37;;;1.23;;
50880;SDS011;36858;47.832;-3.800;2023-01-15T08:37:19;7.83;;;1.23;;
50880;SDS011;36858;47.832;-3.800;2023-01-15T08:39:48;9.60;;;2.53;;
50880;SDS011;36858;47.832;-3.800;2023-01-15T08:42:18;10.47;;;2.43;;
50880;SDS011;36858;47.832;-3.800;2023-01-15T08:44:46;12.13;;;2.00;;
50880;SDS011;36858;47.832;-3.800;2023-01-15T08:47:14;12.60;;;2.60;;
50880;SDS011;36858;47.832;-3.800;2023-01-15T08:49:42;6.43;;;1.43;;
50880;SDS011;36858;47.832;-3.800;2023-01-15T08:52:09;3.93;;;1.20;;
50880;SDS011;36858;47.832;-3.800;2023-01-15T08:54:36;3.27;;;0.90;;
50880;SDS011;36858;47.832;-3.800;2023-01-15T08:57:06;7.97;;;0.97;;
50880;SDS011;36858;47.832;-3.800;2023-01-15T08:59:35;1.63;;;0.60;;
50880;SDS011;36858;47.832;-3.800;2023-01-15T09:02:02;3.60;;;0.53;;
50880;SDS011;36858;47.832;-3.800;2023-01-15T09:04:29;3.67;;;0.90;;
50880;SDS011;36858;47.832;-3.800;2023-01-15T09:06:56;3.93;;;1.10;;
50880;SDS011;36858;47.832;-3.800;2023-01-15T09:09:23;3.73;;;1.30;;
50880;SDS011;36858;47.832;-3.800;2023-01-15T09:11:50;2.47;;;1.43;;
50880;SDS011;36858;47.832;-3.800;2023-01-15T09:14:17;8.53;;;2.67;;
50880;SDS011;36858;47.832;-3.800;2023-01-15T09:17:04;6.80;;;1.97;;
50880;SDS011;36858;47.832;-3.800;2023-01-15T09:19:31;7.77;;;2.07;;
50880;SDS011;36858;47.832;-3.800;2023-01-15T09:21:58;8.87;;;1.93;;
50880;SDS011;36858;47.832;-3.800;2023-01-15T09:24:25;17.93;;;3.03;;
50880;SDS011;36858;47.832;-3.800;2023-01-15T09:26:52;17.40;;;3.50;;
50880;SDS011;36858;47.832;-3.800;2023-01-15T09:29:19;9.23;;;3.23;;
50880;SDS011;36858;47.832;-3.800;2023-01-15T09:31:46;7.67;;;2.33;;
50880;SDS011;36858;47.832;-3.800;2023-01-15T09:34:13;16.20;;;2.60;;
50880;SDS011;36858;47.832;-3.800;2023-01-15T09:36:40;20.67;;;4.80;;
50880;SDS011;36858;47.832;-3.800;2023-01-15T09:39:07;11.43;;;3.90;;
50880;SDS011;36858;47.832;-3.800;2023-01-15T09:47:34;14.37;;;3.37;;
50880;SDS011;36858;47.832;-3.800;2023-01-15T09:55:44;13.37;;;3.00;;
50880;SDS011;36858;47.832;-3.800;2023-01-15T09:58:14;9.30;;;2.53;;
50880;SDS011;36858;47.832;-3.800;2023-01-15T10:00:47;9.70;;;2.27;;
50880;SDS011;36858;47.832;-3.800;2023-01-15T10:03:27;6.33;;;2.17;;
50880;SDS011;36858;47.832;-3.800;2023-01-15T10:06:11;9.27;;;2.00;;
50880;SDS011;36858;47.832;-3.800;2023-01-15T10:08:42;11.63;;;2.67;;
50880;SDS011;36858;47.832;-3.800;2023-01-15T10:13:45;7.40;;;1.83;;
50880;SDS011;36858;47.832;-3.800;2023-01-15T10:16:18;16.10;;;4.50;;
50880;SDS011;36858;47.832;-3.800;2023-01-15T10:18:47;9.40;;;2.43;;
50880;SDS011;36858;47.832;-3.800;2023-01-15T10:27:17;14.23;;;3.50;;
50880;SDS011;36858;47.832;-3.800;2023-01-15T10:30:05;17.00;;;4.63;;
50880;SDS011;36858;47.832;-3.800;2023-01-15T10:32:42;11.37;;;3.23;;
50880;SDS011;36858;47.832;-3.800;2023-01-15T10:35:36;14.53;;;5.20;;
50880;SDS011;36858;47.832;-3.800;2023-01-15T10:40:55;7.37;;;2.17;;
50880;SDS011;36858;47.832;-3.800;2023-01-15T10:46:13;7.80;;;2.37;;
50880;SDS011;36858;47.832;-3.800;2023-01-15T10:51:51;10.53;;;2.33;;
50880;SDS011;36858;47.832;-3.800;2023-01-15T10:57:09;9.60;;;1.73;;
50880;SDS011;36858;47.832;-3.800;2023-01-15T10:59:43;11.03;;;2.10;;
50880;SDS011;36858;47.832;-3.800;2023-01-15T11:05:13;20.10;;;4.60;;
50880;SDS011;36858;47.832;-3.800;2023-01-15T11:07:46;10.60;;;3.10;;
50880;SDS011;36858;47.832;-3.800;2023-01-15T11:10:34;12.53;;;2.13;;
50880;SDS011;36858;47.832;-3.800;2023-01-15T11:13:08;7.83;;;2.13;;
50880;SDS011;36858;47.832;-3.800;2023-01-15T11:16:14;5.87;;;1.77;;
50880;SDS011;36858;47.832;-3.800;2023-01-15T11:19:01;5.80;;;1.07;;
50880;SDS011;36858;47.832;-3.800;2023-01-15T11:21:48;3.53;;;1.20;;
50880;SDS011;36858;47.832;-3.800;2023-01-15T11:24:17;7.83;;;1.67;;
50880;SDS011;36858;47.832;-3.800;2023-01-15T11:26:45;3.37;;;1.43;;
50880;SDS011;36858;47.832;-3.800;2023-01-15T11:29:28;4.13;;;1.63;;
50880;SDS011;36858;47.832;-3.800;2023-01-15T11:31:58;3.30;;;1.00;;
50880;SDS011;36858;47.832;-3.800;2023-01-15T11:34:25;3.73;;;1.10;;
50880;SDS011;36858;47.832;-3.800;2023-01-15T11:37:10;10.00;;;1.73;;
50880;SDS011;36858;47.832;-3.800;2023-01-15T11:39:37;3.30;;;1.27;;
50880;SDS011;36858;47.832;-3.800;2023-01-15T11:42:05;7.27;;;1.37;;
50880;SDS011;36858;47.832;-3.800;2023-01-15T11:44:56;11.27;;;3.60;;
50880;SDS011;36858;47.832;-3.800;2023-01-15T11:48:00;7.47;;;1.60;;
50880;SDS011;36858;47.832;-3.800;2023-01-15T11:50:46;4.97;;;1.80;;
50880;SDS011;36858;47.832;-3.800;2023-01-15T11:53:17;4.37;;;1.27;;
50880;SDS011;36858;47.832;-3.800;2023-01-15T11:55:50;6.80;;;1.73;;
50880;SDS011;36858;47.832;-3.800;2023-01-15T11:58:19;13.10;;;3.43;;
50880;SDS011;36858;47.832;-3.800;2023-01-15T12:00:48;10.30;;;2.70;;
50880;SDS011;36858;47.832;-3.800;2023-01-15T12:03:17;10.70;;;2.97;;
50880;SDS011;36858;47.832;-3.800;2023-01-15T12:05:52;11.87;;;2.73;;
50880;SDS011;36858;47.832;-3.800;2023-01-15T12:10:59;8.43;;;2.10;;
50880;SDS011;36858;47.832;-3.800;2023-01-15T12:16:46;6.17;;;1.90;;
50880;SDS011;36858;47.832;-3.800;2023-01-15T12:19:21;8.03;;;1.87;;
50880;SDS011;36858;47.832;-3.800;2023-01-15T12:30:08;17.50;;;3.43;;
50880;SDS011;36858;47.832;-3.800;2023-01-15T12:32:46;16.40;;;3.23;;
50880;SDS011;36858;47.832;-3.800;2023-01-15T12:35:36;18.67;;;4.23;;
50880;SDS011;36858;47.832;-3.800;2023-01-15T12:41:06;9.47;;;2.17;;
50880;SDS011;36858;47.832;-3.800;2023-01-15T12:43:36;9.40;;;2.40;;
50880;SDS011;36858;47.832;-3.800;2023-01-15T12:46:23;9.87;;;1.97;;
50880;SDS011;36858;47.832;-3.800;2023-01-15T12:54:18;6.93;;;1.93;;
50880;SDS011;36858;47.832;-3.800;2023-01-15T12:56:52;15.43;;;3.60;;
50880;SDS011;36858;47.832;-3.800;2023-01-15T12:59:31;9.23;;;3.07;;
50880;SDS011;36858;47.832;-3.800;2023-01-15T13:04:51;10.73;;;2.10;;
50880;SDS011;36858;47.832;-3.800;2023-01-15T13:09:55;12.17;;;2.20;;
50880;SDS011;36858;47.832;-3.800;2023-01-15T13:12:23;9.70;;;2.40;;
50880;SDS011;36858;47.832;-3.800;2023-01-15T13:14:51;14.97;;;2.37;;
50880;SDS011;36858;47.832;-3.800;2023-01-15T13:17:27;8.10;;;2.10;;
50880;SDS011;36858;47.832;-3.800;2023-01-15T13:22:49;6.57;;;1.70;;
50880;SDS011;36858;47.832;-3.800;2023-01-15T13:30:58;7.20;;;2.77;;
50880;SDS011;36858;47.832;-3.800;2023-01-15T13:33:35;10.43;;;2.30;;
50880;SDS011;36858;47.832;-3.800;2023-01-15T13:36:07;12.60;;;3.13;;
50880;SDS011;36858;47.832;-3.800;2023-01-15T13:39:02;13.00;;;2.70;;
50880;SDS011;36858;47.832;-3.800;2023-01-15T13:41:31;6.70;;;1.90;;
50880;SDS011;36858;47.832;-3.800;2023-01-15T13:44:19;10.77;;;1.83;;
50880;SDS011;36858;47.832;-3.800;2023-01-15T13:49:40;4.73;;;1.43;;
50880;SDS011;36858;47.832;-3.800;2023-01-15T13:52:44;5.63;;;0.97;;
50880;SDS011;36858;47.832;-3.800;2023-01-15T13:57:55;2.17;;;1.43;;
50880;SDS011;36858;47.832;-3.800;2023-01-15T14:00:26;4.63;;;1.27;;
50880;SDS011;36858;47.832;-3.800;2023-01-15T14:02:54;4.93;;;1.03;;
50880;SDS011;36858;47.832;-3.800;2023-01-15T14:07:53;2.07;;;0.60;;
50880;SDS011;36858;47.832;-3.800;2023-01-15T14:10:25;2.23;;;1.17;;
50880;SDS011;36858;47.832;-3.800;2023-01-15T14:25:49;4.70;;;1.17;;
50880;SDS011;36858;47.832;-3.800;2023-01-15T14:46:11;6.80;;;2.00;;
50880;SDS011;36858;47.832;-3.800;2023-01-15T14:48:51;10.07;;;1.77;;
50880;SDS011;36858;47.832;-3.800;2023-01-15T14:51:33;7.13;;;1.57;;
50880;SDS011;36858;47.832;-3.800;2023-01-15T14:54:12;8.03;;;1.73;;
50880;SDS011;36858;47.832;-3.800;2023-01-15T14:56:48;5.03;;;1.37;;
50880;SDS011;36858;47.832;-3.800;2023-01-15T15:02:24;2.30;;;1.10;;
50880;SDS011;36858;47.832;-3.800;2023-01-15T15:05:00;3.20;;;0.80;;
50880;SDS011;36858;47.832;-3.800;2023-01-15T15:07:35;5.13;;;1.27;;
50880;SDS011;36858;47.832;-3.800;2023-01-15T15:10:18;3.97;;;1.60;;
50880;SDS011;36858;47.832;-3.800;2023-01-15T15:15:54;6.83;;;1.23;;
50880;SDS011;36858;47.832;-3.800;2023-01-15T15:18:30;4.93;;;0.80;;
50880;SDS011;36858;47.832;-3.800;2023-01-15T15:21:25;5.83;;;1.10;;
50880;SDS011;36858;47.832;-3.800;2023-01-15T15:23:58;3.27;;;1.00;;
50880;SDS011;36858;47.832;-3.800;2023-01-15T15:26:32;3.47;;;1.10;;
50880;SDS011;36858;47.832;-3.800;2023-01-15T15:29:01;6.00;;;1.30;;
50880;SDS011;36858;47.832;-3.800;2023-01-15T15:31:31;4.83;;;1.93;;
50880;SDS011;36858;47.832;-3.800;2023-01-15T15:34:03;6.13;;;1.43;;
50880;SDS011;36858;47.832;-3.800;2023-01-15T15:36:32;2.97;;;1.57;;
50880;SDS011;36858;47.832;-3.800;2023-01-15T15:39:14;4.10;;;1.80;;
50880;SDS011;36858;47.832;-3.800;2023-01-15T15:41:46;10.07;;;3.10;;
50880;SDS011;36858;47.832;-3.800;2023-01-15T15:44:54;7.20;;;1.93;;
50880;SDS011;36858;47.832;-3.800;2023-01-15T15:47:41;6.10;;;1.60;;
50880;SDS011;36858;47.832;-3.800;2023-01-15T15:50:33;13.63;;;3.50;;
50880;SDS011;36858;47.832;-3.800;2023-01-15T15:53:00;11.93;;;2.53;;
50880;SDS011;36858;47.832;-3.800;2023-01-15T15:55:39;11.43;;;3.10;;
50880;SDS011;36858;47.832;-3.800;2023-01-15T15:58:10;7.43;;;2.73;;
50880;SDS011;36858;47.832;-3.800;2023-01-15T16:04:25;8.17;;;2.57;;
50880;SDS011;36858;47.832;-3.800;2023-01-15T16:06:53;8.93;;;2.00;;
50880;SDS011;36858;47.832;-3.800;2023-01-15T16:09:21;8.73;;;2.50;;
50880;SDS011;36858;47.832;-3.800;2023-01-15T16:11:49;8.67;;;1.93;;
50880;SDS011;36858;47.832;-3.800;2023-01-15T16:14:17;10.77;;;2.37;;
50880;SDS011;36858;47.832;-3.800;2023-01-15T16:16:45;7.00;;;1.80;;
50880;SDS011;36858;47.832;-3.800;2023-01-15T16:19:16;6.53;;;1.70;;
50880;SDS011;36858;47.832;-3.800;2023-01-15T16:21:45;3.60;;;1.10;;
50880;SDS011;36858;47.832;-3.800;2023-01-15T16:24:23;5.03;;;1.30;;
50880;SDS011;36858;47.832;-3.800;2023-01-15T16:27:13;3.57;;;1.03;;
50880;SDS011;36858;47.832;-3.800;2023-01-15T16:29:46;9.13;;;2.03;;
50880;SDS011;36858;47.832;-3.800;2023-01-15T16:32:16;4.20;;;1.47;;
50880;SDS011;36858;47.832;-3.800;2023-01-15T16:34:47;17.57;;;5.17;;
50880;SDS011;36858;47.832;-3.800;2023-01-15T16:37:23;10.77;;;2.87;;
50880;SDS011;36858;47.832;-3.800;2023-01-15T16:39:51;11.57;;;2.80;;
50880;SDS011;36858;47.832;-3.800;2023-01-15T16:42:37;13.07;;;3.30;;
50880;SDS011;36858;47.832;-3.800;2023-01-15T16:47:58;9.90;;;3.20;;
50880;SDS011;36858;47.832;-3.800;2023-01-15T16:50:37;10.70;;;2.50;;
50880;SDS011;36858;47.832;-3.800;2023-01-15T16:53:05;8.57;;;1.83;;
50880;SDS011;36858;47.832;-3.800;2023-01-15T16:55:39;10.23;;;1.93;;
50880;SDS011;36858;47.832;-3.800;2023-01-15T17:00:38;5.17;;;1.73;;
50880;SDS011;36858;47.832;-3.800;2023-01-15T17:03:19;6.97;;;1.70;;
50880;SDS011;36858;47.832;-3.800;2023-01-15T17:05:48;10.17;;;2.57;;
50880;SDS011;36858;47.832;-3.800;2023-01-15T17:08:36;7.10;;;1.83;;
50880;SDS011;36858;47.832;-3.800;2023-01-15T17:11:05;11.07;;;2.83;;
50880;SDS011;36858;47.832;-3.800;2023-01-15T17:13:43;10.13;;;1.80;;
50880;SDS011;36858;47.832;-3.800;2023-01-15T17:16:19;7.17;;;1.43;;
50880;SDS011;36858;47.832;-3.800;2023-01-15T17:18:50;6.77;;;2.00;;
50880;SDS011;36858;47.832;-3.800;2023-01-15T17:21:21;9.93;;;1.77;;
50880;SDS011;36858;47.832;-3.800;2023-01-15T17:23:48;8.37;;;2.03;;
50880;SDS011;36858;47.832;-3.800;2023-01-15T17:26:17;8.27;;;1.70;;
50880;SDS011;36858;47.832;-3.800;2023-01-15T17:28:45;7.00;;;1.73;;
50880;SDS011;36858;47.832;-3.800;2023-01-15T17:31:22;12.83;;;1.87;;
50880;SDS011;36858;47.832;-3.800;2023-01-15T17:33:50;4.83;;;1.93;;
50880;SDS011;36858;47.832;-3.800;2023-01-15T17:36:17;8.73;;;1.77;;